sensor_id;sensor_type;location;lat;lon;timestamp;P1;durP1;ratioP1;P2;durP2;ratioP2
12784;SDS011;6456;42.680;23.260;2022-08-19T00:00:48;5.40;;;4.70;;
12784;SDS011;6456;42.680;23.260;2022-08-19T00:03:15;5.47;;;4.90;;
12784;SDS011;6456;42.680;23.260;2022-08-19T00:05:44;4.80;;;4.32;;
12784;SDS011;6456;42.680;23.260;2022-08-19T00:08:11;5.10;;;4.68;;
12784;SDS011;6456;42.680;23.260;2022-08-19T00:10:38;5.43;;;4.93;;
12784;SDS011;6456;42.680;23.260;2022-08-19T00:13:05;5.18;;;4.40;;
12784;SDS011;6456;42.680;23.260;2022-08-19T00:15:32;4.47;;;4.18;;
12784;SDS011;6456;42.680;23.260;2022-08-19T00:17:59;4.95;;;4.45;;
12784;SDS011;6456;42.680;23.260;2022-08-19T00:20:26;5.35;;;4.90;;
12784;SDS011;6456;42.680;23.260;2022-08-19T00:22:54;5.25;;;4.85;;
12784;SDS011;6456;42.680;23.260;2022-08-19T00:25:21;6.32;;;5.07;;
12784;SDS011;6456;42.680;23.260;2022-08-19T00:27:48;5.55;;;4.90;;
12784;SDS011;6456;42.680;23.260;2022-08-19T00:30:15;5.63;;;4.82;;
12784;SDS011;6456;42.680;23.260;2022-08-19T00:32:42;5.20;;;4.70;;
12784;SDS011;6456;42.680;23.260;2022-08-19T00:35:09;8.93;;;5.53;;
12784;SDS011;6456;42.680;23.260;2022-08-19T00:37:36;6.22;;;5.13;;
12784;SDS011;6456;42.680;23.260;2022-08-19T00:40:10;6.80;;;5.32;;
12784;SDS011;6456;42.680;23.260;2022-08-19T00:42:39;5.15;;;4.75;;
12784;SDS011;6456;42.680;23.260;2022-08-19T00:45:09;5.47;;;5.07;;
12784;SDS011;6456;42.680;23.260;2022-08-19T00:47:39;5.03;;;4.63;;
12784;SDS011;6456;42.680;23.260;2022-08-19T00:50:07;5.72;;;5.20;;
12784;SDS011;6456;42.680;23.260;2022-08-19T00:52:37;5.03;;;4.40;;
12784;SDS011;6456;42.680;23.260;2022-08-19T00:55:13;5.10;;;4.70;;
12784;SDS011;6456;42.680;23.260;2022-08-19T00:57:45;5.22;;;4.78;;
12784;SDS011;6456;42.680;23.260;2022-08-19T01:00:17;4.82;;;4.30;;
12784;SDS011;6456;42.680;23.260;2022-08-19T01:02:45;5.38;;;4.97;;
12784;SDS011;6456;42.680;23.260;2022-08-19T01:05:13;5.18;;;4.80;;
12784;SDS011;6456;42.680;23.260;2022-08-19T01:07:43;5.38;;;4.90;;
12784;SDS011;6456;42.680;23.260;2022-08-19T01:10:13;5.05;;;4.65;;
12784;SDS011;6456;42.680;23.260;2022-08-19T01:12:43;5.60;;;5.10;;
12784;SDS011;6456;42.680;23.260;2022-08-19T01:15:12;4.63;;;4.25;;
12784;SDS011;6456;42.680;23.260;2022-08-19T01:17:41;8.15;;;6.68;;
12784;SDS011;6456;42.680;23.260;2022-08-19T01:20:10;7.10;;;6.40;;
12784;SDS011;6456;42.680;23.260;2022-08-19T01:22:46;7.65;;;6.85;;
12784;SDS011;6456;42.680;23.260;2022-08-19T01:25:15;5.47;;;5.07;;
12784;SDS011;6456;42.680;23.260;2022-08-19T01:27:46;8.73;;;6.25;;
12784;SDS011;6456;42.680;23.260;2022-08-19T01:30:16;6.50;;;5.85;;
12784;SDS011;6456;42.680;23.260;2022-08-19T01:32:45;5.63;;;5.13;;
12784;SDS011;6456;42.680;23.260;2022-08-19T01:35:12;7.47;;;5.85;;
12784;SDS011;6456;42.680;23.260;2022-08-19T01:37:43;5.82;;;5.32;;
12784;SDS011;6456;42.680;23.260;2022-08-19T01:40:16;6.57;;;5.55;;
12784;SDS011;6456;42.680;23.260;2022-08-19T01:42:48;5.95;;;5.38;;
12784;SDS011;6456;42.680;23.260;2022-08-19T01:45:20;8.33;;;6.10;;
12784;SDS011;6456;42.680;23.260;2022-08-19T01:47:51;6.00;;;5.32;;
12784;SDS011;6456;42.680;23.260;2022-08-19T01:53:20;6.40;;;5.80;;
12784;SDS011;6456;42.680;23.260;2022-08-19T01:55:54;6.43;;;5.82;;
12784;SDS011;6456;42.680;23.260;2022-08-19T01:58:27;6.80;;;6.10;;
12784;SDS011;6456;42.680;23.260;2022-08-19T02:01:01;7.25;;;5.65;;
12784;SDS011;6456;42.680;23.260;2022-08-19T02:03:29;6.45;;;5.78;;
12784;SDS011;6456;42.680;23.260;2022-08-19T02:06:04;6.53;;;5.93;;
12784;SDS011;6456;42.680;23.260;2022-08-19T02:08:37;7.00;;;5.97;;
12784;SDS011;6456;42.680;23.260;2022-08-19T02:11:07;6.90;;;5.70;;
12784;SDS011;6456;42.680;23.260;2022-08-19T02:13:46;7.07;;;6.37;;
12784;SDS011;6456;42.680;23.260;2022-08-19T02:16:14;7.17;;;6.13;;
12784;SDS011;6456;42.680;23.260;2022-08-19T02:18:46;8.73;;;6.67;;
12784;SDS011;6456;42.680;23.260;2022-08-19T02:21:17;7.83;;;6.17;;
12784;SDS011;6456;42.680;23.260;2022-08-19T02:23:48;6.90;;;6.30;;
12784;SDS011;6456;42.680;23.260;2022-08-19T02:26:16;6.37;;;5.77;;
12784;SDS011;6456;42.680;23.260;2022-08-19T02:29:07;6.90;;;6.20;;
12784;SDS011;6456;42.680;23.260;2022-08-19T02:31:41;6.37;;;5.70;;
12784;SDS011;6456;42.680;23.260;2022-08-19T02:34:13;6.33;;;5.67;;
12784;SDS011;6456;42.680;23.260;2022-08-19T02:36:42;6.50;;;5.67;;
12784;SDS011;6456;42.680;23.260;2022-08-19T02:39:17;9.57;;;6.30;;
12784;SDS011;6456;42.680;23.260;2022-08-19T02:41:44;7.70;;;7.00;;
12784;SDS011;6456;42.680;23.260;2022-08-19T02:44:17;6.83;;;6.07;;
12784;SDS011;6456;42.680;23.260;2022-08-19T02:46:45;6.73;;;5.80;;
12784;SDS011;6456;42.680;23.260;2022-08-19T02:49:15;8.23;;;5.97;;
12784;SDS011;6456;42.680;23.260;2022-08-19T02:51:44;7.60;;;6.83;;
12784;SDS011;6456;42.680;23.260;2022-08-19T02:54:12;7.27;;;6.47;;
12784;SDS011;6456;42.680;23.260;2022-08-19T02:56:42;7.50;;;6.17;;
12784;SDS011;6456;42.680;23.260;2022-08-19T02:59:10;7.23;;;6.47;;
12784;SDS011;6456;42.680;23.260;2022-08-19T03:01:39;6.83;;;6.17;;
12784;SDS011;6456;42.680;23.260;2022-08-19T03:04:08;6.93;;;5.97;;
12784;SDS011;6456;42.680;23.260;2022-08-19T03:06:37;6.97;;;6.33;;
12784;SDS011;6456;42.680;23.260;2022-08-19T03:09:05;7.53;;;6.30;;
12784;SDS011;6456;42.680;23.260;2022-08-19T03:11:34;7.07;;;6.37;;
12784;SDS011;6456;42.680;23.260;2022-08-19T03:14:05;8.17;;;6.47;;
12784;SDS011;6456;42.680;23.260;2022-08-19T03:16:36;11.23;;;8.73;;
12784;SDS011;6456;42.680;23.260;2022-08-19T03:19:07;11.27;;;7.40;;
12784;SDS011;6456;42.680;23.260;2022-08-19T03:21:35;10.37;;;9.33;;
12784;SDS011;6456;42.680;23.260;2022-08-19T03:24:03;11.37;;;9.23;;
12784;SDS011;6456;42.680;23.260;2022-08-19T03:26:31;13.00;;;9.63;;
12784;SDS011;6456;42.680;23.260;2022-08-19T03:29:06;12.80;;;9.83;;
12784;SDS011;6456;42.680;23.260;2022-08-19T03:31:34;13.37;;;9.93;;
12784;SDS011;6456;42.680;23.260;2022-08-19T03:34:01;9.30;;;8.40;;
12784;SDS011;6456;42.680;23.260;2022-08-19T03:36:28;9.90;;;8.13;;
12784;SDS011;6456;42.680;23.260;2022-08-19T03:38:57;7.80;;;7.10;;
12784;SDS011;6456;42.680;23.260;2022-08-19T03:41:27;9.80;;;6.53;;
12784;SDS011;6456;42.680;23.260;2022-08-19T03:44:03;7.40;;;6.63;;
12784;SDS011;6456;42.680;23.260;2022-08-19T03:46:50;10.70;;;7.03;;
12784;SDS011;6456;42.680;23.260;2022-08-19T03:49:28;9.80;;;6.50;;
12784;SDS011;6456;42.680;23.260;2022-08-19T03:52:22;9.20;;;7.13;;
12784;SDS011;6456;42.680;23.260;2022-08-19T03:55:12;8.30;;;7.50;;
12784;SDS011;6456;42.680;23.260;2022-08-19T03:57:53;11.90;;;7.10;;
12784;SDS011;6456;42.680;23.260;2022-08-19T04:00:36;8.43;;;7.03;;
12784;SDS011;6456;42.680;23.260;2022-08-19T04:03:07;10.00;;;7.60;;
12784;SDS011;6456;42.680;23.260;2022-08-19T04:05:39;8.27;;;7.27;;
12784;SDS011;6456;42.680;23.260;2022-08-19T04:08:06;12.50;;;7.60;;
12784;SDS011;6456;42.680;23.260;2022-08-19T04:10:38;10.53;;;7.73;;
12784;SDS011;6456;42.680;23.260;2022-08-19T04:13:11;11.07;;;7.60;;
12784;SDS011;6456;42.680;23.260;2022-08-19T04:15:43;7.73;;;6.93;;
12784;SDS011;6456;42.680;23.260;2022-08-19T04:18:16;14.13;;;7.53;;
12784;SDS011;6456;42.680;23.260;2022-08-19T04:20:46;9.67;;;6.83;;
12784;SDS011;6456;42.680;23.260;2022-08-19T04:23:14;9.03;;;7.17;;
12784;SDS011;6456;42.680;23.260;2022-08-19T04:25:43;8.07;;;7.27;;
12784;SDS011;6456;42.680;23.260;2022-08-19T04:28:11;8.43;;;7.00;;
12784;SDS011;6456;42.680;23.260;2022-08-19T04:30:49;8.23;;;7.47;;
12784;SDS011;6456;42.680;23.260;2022-08-19T04:33:28;10.07;;;7.33;;
12784;SDS011;6456;42.680;23.260;2022-08-19T04:36:57;11.03;;;6.73;;
12784;SDS011;6456;42.680;23.260;2022-08-19T04:39:21;12.37;;;6.87;;
12784;SDS011;6456;42.680;23.260;2022-08-19T04:42:15;9.37;;;7.03;;
12784;SDS011;6456;42.680;23.260;2022-08-19T04:45:20;14.23;;;7.50;;
12784;SDS011;6456;42.680;23.260;2022-08-19T04:50:58;9.53;;;7.80;;
12784;SDS011;6456;42.680;23.260;2022-08-19T04:53:44;8.60;;;6.83;;
12784;SDS011;6456;42.680;23.260;2022-08-19T04:56:20;14.00;;;7.10;;
12784;SDS011;6456;42.680;23.260;2022-08-19T04:58:52;15.67;;;8.53;;
12784;SDS011;6456;42.680;23.260;2022-08-19T05:01:39;11.80;;;8.30;;
12784;SDS011;6456;42.680;23.260;2022-08-19T05:04:25;13.77;;;9.20;;
12784;SDS011;6456;42.680;23.260;2022-08-19T05:07:15;12.00;;;9.33;;
12784;SDS011;6456;42.680;23.260;2022-08-19T05:10:07;11.30;;;10.00;;
12784;SDS011;6456;42.680;23.260;2022-08-19T05:12:45;12.47;;;10.30;;
12784;SDS011;6456;42.680;23.260;2022-08-19T05:15:12;16.67;;;9.40;;
12784;SDS011;6456;42.680;23.260;2022-08-19T05:17:39;9.97;;;8.53;;
12784;SDS011;6456;42.680;23.260;2022-08-19T05:20:31;10.83;;;9.03;;
12784;SDS011;6456;42.680;23.260;2022-08-19T05:23:16;15.40;;;9.37;;
12784;SDS011;6456;42.680;23.260;2022-08-19T05:25:43;10.87;;;9.07;;
12784;SDS011;6456;42.680;23.260;2022-08-19T05:28:10;18.03;;;10.63;;
12784;SDS011;6456;42.680;23.260;2022-08-19T05:30:37;11.13;;;10.03;;
12784;SDS011;6456;42.680;23.260;2022-08-19T05:33:05;11.23;;;9.20;;
12784;SDS011;6456;42.680;23.260;2022-08-19T05:35:34;13.00;;;8.87;;
12784;SDS011;6456;42.680;23.260;2022-08-19T05:38:02;15.63;;;9.40;;
12784;SDS011;6456;42.680;23.260;2022-08-19T05:40:30;10.07;;;8.57;;
12784;SDS011;6456;42.680;23.260;2022-08-19T05:43:03;9.60;;;8.13;;
12784;SDS011;6456;42.680;23.260;2022-08-19T05:45:31;13.43;;;8.77;;
12784;SDS011;6456;42.680;23.260;2022-08-19T05:47:59;9.85;;;8.45;;
12784;SDS011;6456;42.680;23.260;2022-08-19T05:50:26;11.23;;;8.27;;
12784;SDS011;6456;42.680;23.260;2022-08-19T05:52:55;10.25;;;8.50;;
12784;SDS011;6456;42.680;23.260;2022-08-19T05:55:22;9.35;;;7.82;;
12784;SDS011;6456;42.680;23.260;2022-08-19T05:57:49;12.57;;;8.05;;
12784;SDS011;6456;42.680;23.260;2022-08-19T06:00:16;12.10;;;7.60;;
12784;SDS011;6456;42.680;23.260;2022-08-19T06:02:43;8.93;;;7.18;;
12784;SDS011;6456;42.680;23.260;2022-08-19T06:05:11;10.00;;;8.23;;
12784;SDS011;6456;42.680;23.260;2022-08-19T06:07:38;11.30;;;8.10;;
12784;SDS011;6456;42.680;23.260;2022-08-19T06:10:09;15.10;;;8.15;;
12784;SDS011;6456;42.680;23.260;2022-08-19T06:12:37;16.63;;;8.57;;
12784;SDS011;6456;42.680;23.260;2022-08-19T06:15:05;13.85;;;9.10;;
12784;SDS011;6456;42.680;23.260;2022-08-19T06:17:34;17.77;;;8.75;;
12784;SDS011;6456;42.680;23.260;2022-08-19T06:20:02;12.10;;;8.38;;
12784;SDS011;6456;42.680;23.260;2022-08-19T06:22:36;11.23;;;8.57;;
12784;SDS011;6456;42.680;23.260;2022-08-19T06:25:04;13.73;;;8.80;;
12784;SDS011;6456;42.680;23.260;2022-08-19T06:27:33;9.80;;;8.55;;
12784;SDS011;6456;42.680;23.260;2022-08-19T06:30:00;10.10;;;9.18;;
12784;SDS011;6456;42.680;23.260;2022-08-19T06:32:27;11.48;;;8.73;;
12784;SDS011;6456;42.680;23.260;2022-08-19T06:34:55;14.80;;;8.70;;
12784;SDS011;6456;42.680;23.260;2022-08-19T06:37:24;13.10;;;9.15;;
12784;SDS011;6456;42.680;23.260;2022-08-19T06:39:51;20.48;;;9.70;;
12784;SDS011;6456;42.680;23.260;2022-08-19T06:42:18;15.93;;;9.07;;
12784;SDS011;6456;42.680;23.260;2022-08-19T06:44:47;11.32;;;8.70;;
12784;SDS011;6456;42.680;23.260;2022-08-19T06:47:16;9.68;;;8.73;;
12784;SDS011;6456;42.680;23.260;2022-08-19T06:49:46;15.30;;;8.93;;
12784;SDS011;6456;42.680;23.260;2022-08-19T06:52:13;12.05;;;9.27;;
12784;SDS011;6456;42.680;23.260;2022-08-19T06:54:43;10.68;;;9.65;;
12784;SDS011;6456;42.680;23.260;2022-08-19T06:57:11;13.23;;;9.45;;
12784;SDS011;6456;42.680;23.260;2022-08-19T06:59:40;12.80;;;9.52;;
12784;SDS011;6456;42.680;23.260;2022-08-19T07:02:08;11.18;;;9.57;;
12784;SDS011;6456;42.680;23.260;2022-08-19T07:04:35;11.48;;;9.95;;
12784;SDS011;6456;42.680;23.260;2022-08-19T07:07:04;14.25;;;9.73;;
12784;SDS011;6456;42.680;23.260;2022-08-19T07:09:33;13.07;;;10.40;;
12784;SDS011;6456;42.680;23.260;2022-08-19T07:12:03;17.20;;;9.70;;
12784;SDS011;6456;42.680;23.260;2022-08-19T07:14:31;15.43;;;10.32;;
12784;SDS011;6456;42.680;23.260;2022-08-19T07:17:00;17.02;;;10.63;;
12784;SDS011;6456;42.680;23.260;2022-08-19T07:19:30;13.23;;;9.95;;
12784;SDS011;6456;42.680;23.260;2022-08-19T07:22:00;15.43;;;10.23;;
12784;SDS011;6456;42.680;23.260;2022-08-19T07:24:28;13.10;;;9.55;;
12784;SDS011;6456;42.680;23.260;2022-08-19T07:26:57;13.68;;;9.95;;
12784;SDS011;6456;42.680;23.260;2022-08-19T07:29:29;9.88;;;8.90;;
12784;SDS011;6456;42.680;23.260;2022-08-19T07:31:58;10.32;;;8.32;;
12784;SDS011;6456;42.680;23.260;2022-08-19T07:34:26;10.48;;;9.20;;
12784;SDS011;6456;42.680;23.260;2022-08-19T07:36:56;14.82;;;8.90;;
12784;SDS011;6456;42.680;23.260;2022-08-19T07:39:25;11.48;;;8.02;;
12784;SDS011;6456;42.680;23.260;2022-08-19T07:41:54;12.25;;;8.60;;
12784;SDS011;6456;42.680;23.260;2022-08-19T07:44:23;10.90;;;8.32;;
12784;SDS011;6456;42.680;23.260;2022-08-19T07:46:52;9.13;;;8.23;;
12784;SDS011;6456;42.680;23.260;2022-08-19T07:49:21;9.75;;;7.90;;
12784;SDS011;6456;42.680;23.260;2022-08-19T07:51:50;13.85;;;7.57;;
12784;SDS011;6456;42.680;23.260;2022-08-19T07:54:20;8.30;;;7.50;;
12784;SDS011;6456;42.680;23.260;2022-08-19T07:56:48;10.73;;;7.65;;
12784;SDS011;6456;42.680;23.260;2022-08-19T07:59:16;9.10;;;7.63;;
12784;SDS011;6456;42.680;23.260;2022-08-19T08:01:44;10.15;;;7.03;;
12784;SDS011;6456;42.680;23.260;2022-08-19T08:04:12;8.50;;;7.30;;
12784;SDS011;6456;42.680;23.260;2022-08-19T08:06:57;9.40;;;6.80;;
12784;SDS011;6456;42.680;23.260;2022-08-19T08:09:43;11.30;;;7.28;;
12784;SDS011;6456;42.680;23.260;2022-08-19T08:12:12;10.80;;;6.95;;
12784;SDS011;6456;42.680;23.260;2022-08-19T08:14:42;9.70;;;6.72;;
12784;SDS011;6456;42.680;23.260;2022-08-19T08:17:12;10.18;;;6.90;;
12784;SDS011;6456;42.680;23.260;2022-08-19T08:19:44;7.85;;;6.30;;
12784;SDS011;6456;42.680;23.260;2022-08-19T08:22:14;7.85;;;6.57;;
12784;SDS011;6456;42.680;23.260;2022-08-19T08:25:00;8.93;;;6.47;;
12784;SDS011;6456;42.680;23.260;2022-08-19T08:27:28;6.55;;;5.68;;
12784;SDS011;6456;42.680;23.260;2022-08-19T08:29:56;12.38;;;6.45;;
12784;SDS011;6456;42.680;23.260;2022-08-19T08:32:23;6.28;;;5.35;;
12784;SDS011;6456;42.680;23.260;2022-08-19T08:34:50;7.82;;;5.70;;
12784;SDS011;6456;42.680;23.260;2022-08-19T08:37:19;11.35;;;6.20;;
12784;SDS011;6456;42.680;23.260;2022-08-19T08:39:47;7.47;;;5.60;;
12784;SDS011;6456;42.680;23.260;2022-08-19T08:42:18;6.68;;;5.28;;
12784;SDS011;6456;42.680;23.260;2022-08-19T08:44:56;5.20;;;4.60;;
12784;SDS011;6456;42.680;23.260;2022-08-19T08:47:26;5.28;;;4.53;;
12784;SDS011;6456;42.680;23.260;2022-08-19T08:50:01;5.05;;;4.60;;
12784;SDS011;6456;42.680;23.260;2022-08-19T08:52:31;6.43;;;5.07;;
12784;SDS011;6456;42.680;23.260;2022-08-19T08:55:03;5.32;;;4.85;;
12784;SDS011;6456;42.680;23.260;2022-08-19T08:57:38;7.38;;;4.88;;
12784;SDS011;6456;42.680;23.260;2022-08-19T09:00:21;6.97;;;5.10;;
12784;SDS011;6456;42.680;23.260;2022-08-19T09:02:51;5.80;;;5.05;;
12784;SDS011;6456;42.680;23.260;2022-08-19T09:05:18;8.45;;;4.93;;
12784;SDS011;6456;42.680;23.260;2022-08-19T09:07:49;7.00;;;4.70;;
12784;SDS011;6456;42.680;23.260;2022-08-19T09:10:25;5.75;;;5.05;;
12784;SDS011;6456;42.680;23.260;2022-08-19T09:13:01;5.40;;;4.90;;
12784;SDS011;6456;42.680;23.260;2022-08-19T09:15:34;6.97;;;5.00;;
12784;SDS011;6456;42.680;23.260;2022-08-19T09:18:05;6.95;;;4.78;;
12784;SDS011;6456;42.680;23.260;2022-08-19T09:20:34;5.40;;;4.90;;
12784;SDS011;6456;42.680;23.260;2022-08-19T09:23:01;4.32;;;3.92;;
12784;SDS011;6456;42.680;23.260;2022-08-19T09:25:29;4.40;;;4.00;;
12784;SDS011;6456;42.680;23.260;2022-08-19T09:27:57;4.60;;;4.18;;
12784;SDS011;6456;42.680;23.260;2022-08-19T09:30:30;4.07;;;3.75;;
12784;SDS011;6456;42.680;23.260;2022-08-19T09:32:58;3.80;;;3.50;;
12784;SDS011;6456;42.680;23.260;2022-08-19T09:35:26;4.25;;;3.65;;
12784;SDS011;6456;42.680;23.260;2022-08-19T09:37:55;8.00;;;3.90;;
12784;SDS011;6456;42.680;23.260;2022-08-19T09:40:23;6.65;;;4.43;;
12784;SDS011;6456;42.680;23.260;2022-08-19T09:42:51;3.90;;;3.50;;
12784;SDS011;6456;42.680;23.260;2022-08-19T09:45:19;3.88;;;3.55;;
12784;SDS011;6456;42.680;23.260;2022-08-19T09:47:49;4.45;;;3.45;;
12784;SDS011;6456;42.680;23.260;2022-08-19T09:50:17;5.90;;;4.55;;
12784;SDS011;6456;42.680;23.260;2022-08-19T09:52:45;10.13;;;4.53;;
12784;SDS011;6456;42.680;23.260;2022-08-19T09:55:12;8.30;;;4.35;;
12784;SDS011;6456;42.680;23.260;2022-08-19T09:57:41;5.80;;;3.75;;
12784;SDS011;6456;42.680;23.260;2022-08-19T10:00:08;13.48;;;3.65;;
12784;SDS011;6456;42.680;23.260;2022-08-19T10:02:36;4.50;;;3.42;;
12784;SDS011;6456;42.680;23.260;2022-08-19T10:05:05;3.80;;;3.40;;
12784;SDS011;6456;42.680;23.260;2022-08-19T10:07:50;4.00;;;3.67;;
12784;SDS011;6456;42.680;23.260;2022-08-19T10:10:17;5.88;;;3.90;;
12784;SDS011;6456;42.680;23.260;2022-08-19T10:12:47;4.53;;;3.70;;
12784;SDS011;6456;42.680;23.260;2022-08-19T10:15:14;4.78;;;3.78;;
12784;SDS011;6456;42.680;23.260;2022-08-19T10:17:46;4.13;;;3.83;;
12784;SDS011;6456;42.680;23.260;2022-08-19T10:20:14;4.40;;;4.00;;
12784;SDS011;6456;42.680;23.260;2022-08-19T10:22:42;4.20;;;3.55;;
12784;SDS011;6456;42.680;23.260;2022-08-19T10:25:23;4.38;;;3.33;;
12784;SDS011;6456;42.680;23.260;2022-08-19T10:28:09;4.95;;;3.75;;
12784;SDS011;6456;42.680;23.260;2022-08-19T10:30:37;3.95;;;3.58;;
12784;SDS011;6456;42.680;23.260;2022-08-19T10:33:11;4.88;;;3.85;;
12784;SDS011;6456;42.680;23.260;2022-08-19T10:35:42;5.65;;;3.50;;
12784;SDS011;6456;42.680;23.260;2022-08-19T10:38:09;4.70;;;3.75;;
12784;SDS011;6456;42.680;23.260;2022-08-19T10:40:36;4.13;;;3.83;;
12784;SDS011;6456;42.680;23.260;2022-08-19T10:43:04;6.68;;;4.20;;
12784;SDS011;6456;42.680;23.260;2022-08-19T10:45:31;4.63;;;4.10;;
12784;SDS011;6456;42.680;23.260;2022-08-19T10:47:58;5.30;;;4.28;;
12784;SDS011;6456;42.680;23.260;2022-08-19T10:50:28;4.88;;;4.47;;
12784;SDS011;6456;42.680;23.260;2022-08-19T10:53:14;5.70;;;4.50;;
12784;SDS011;6456;42.680;23.260;2022-08-19T10:55:40;4.25;;;3.95;;
12784;SDS011;6456;42.680;23.260;2022-08-19T10:58:25;4.78;;;4.20;;
12784;SDS011;6456;42.680;23.260;2022-08-19T11:00:55;4.85;;;4.45;;
12784;SDS011;6456;42.680;23.260;2022-08-19T11:03:24;7.38;;;4.30;;
12784;SDS011;6456;42.680;23.260;2022-08-19T11:05:59;4.72;;;4.25;;
12784;SDS011;6456;42.680;23.260;2022-08-19T11:08:28;5.65;;;4.47;;
12784;SDS011;6456;42.680;23.260;2022-08-19T11:10:58;8.38;;;4.20;;
12784;SDS011;6456;42.680;23.260;2022-08-19T11:13:26;4.18;;;3.78;;
12784;SDS011;6456;42.680;23.260;2022-08-19T11:15:57;6.30;;;4.55;;
12784;SDS011;6456;42.680;23.260;2022-08-19T11:18:25;5.03;;;4.55;;
12784;SDS011;6456;42.680;23.260;2022-08-19T11:21:06;8.45;;;5.20;;
12784;SDS011;6456;42.680;23.260;2022-08-19T11:23:37;5.10;;;4.57;;
12784;SDS011;6456;42.680;23.260;2022-08-19T11:26:06;9.52;;;7.00;;
12784;SDS011;6456;42.680;23.260;2022-08-19T11:28:33;6.30;;;5.80;;
12784;SDS011;6456;42.680;23.260;2022-08-19T11:31:00;9.70;;;6.60;;
12784;SDS011;6456;42.680;23.260;2022-08-19T11:33:28;9.95;;;7.65;;
12784;SDS011;6456;42.680;23.260;2022-08-19T11:35:56;4.50;;;4.10;;
12784;SDS011;6456;42.680;23.260;2022-08-19T11:38:24;7.70;;;5.32;;
12784;SDS011;6456;42.680;23.260;2022-08-19T11:40:59;6.70;;;5.20;;
12784;SDS011;6456;42.680;23.260;2022-08-19T11:43:28;8.23;;;5.82;;
12784;SDS011;6456;42.680;23.260;2022-08-19T11:45:56;6.40;;;4.80;;
12784;SDS011;6456;42.680;23.260;2022-08-19T11:48:23;5.30;;;4.90;;
12784;SDS011;6456;42.680;23.260;2022-08-19T11:50:52;5.43;;;4.88;;
12784;SDS011;6456;42.680;23.260;2022-08-19T11:53:20;8.85;;;6.68;;
12784;SDS011;6456;42.680;23.260;2022-08-19T11:55:47;9.57;;;7.30;;
12784;SDS011;6456;42.680;23.260;2022-08-19T11:58:17;6.10;;;4.57;;
12784;SDS011;6456;42.680;23.260;2022-08-19T12:00:44;4.97;;;4.57;;
12784;SDS011;6456;42.680;23.260;2022-08-19T12:03:11;6.32;;;5.78;;
12784;SDS011;6456;42.680;23.260;2022-08-19T12:05:41;5.03;;;4.63;;
12784;SDS011;6456;42.680;23.260;2022-08-19T12:08:08;9.57;;;5.20;;
12784;SDS011;6456;42.680;23.260;2022-08-19T12:10:36;5.30;;;4.80;;
12784;SDS011;6456;42.680;23.260;2022-08-19T12:13:03;5.43;;;4.85;;
12784;SDS011;6456;42.680;23.260;2022-08-19T12:15:36;5.18;;;4.78;;
12784;SDS011;6456;42.680;23.260;2022-08-19T12:18:03;4.55;;;4.25;;
12784;SDS011;6456;42.680;23.260;2022-08-19T12:20:30;6.82;;;5.35;;
12784;SDS011;6456;42.680;23.260;2022-08-19T12:22:57;5.43;;;4.88;;
12784;SDS011;6456;42.680;23.260;2022-08-19T12:25:24;5.10;;;4.65;;
12784;SDS011;6456;42.680;23.260;2022-08-19T12:27:51;6.03;;;4.90;;
12784;SDS011;6456;42.680;23.260;2022-08-19T12:30:18;4.95;;;4.55;;
12784;SDS011;6456;42.680;23.260;2022-08-19T12:32:47;4.82;;;4.43;;
12784;SDS011;6456;42.680;23.260;2022-08-19T12:35:16;4.70;;;4.30;;
12784;SDS011;6456;42.680;23.260;2022-08-19T12:37:45;4.75;;;4.35;;
12784;SDS011;6456;42.680;23.260;2022-08-19T12:40:12;5.72;;;4.43;;
12784;SDS011;6456;42.680;23.260;2022-08-19T12:42:42;5.63;;;5.10;;
12784;SDS011;6456;42.680;23.260;2022-08-19T12:45:09;6.63;;;5.90;;
12784;SDS011;6456;42.680;23.260;2022-08-19T12:47:40;5.40;;;5.00;;
12784;SDS011;6456;42.680;23.260;2022-08-19T12:50:09;6.30;;;4.55;;
12784;SDS011;6456;42.680;23.260;2022-08-19T12:52:36;5.70;;;4.40;;
12784;SDS011;6456;42.680;23.260;2022-08-19T12:55:04;6.57;;;5.07;;
12784;SDS011;6456;42.680;23.260;2022-08-19T12:57:32;6.53;;;5.00;;
12784;SDS011;6456;42.680;23.260;2022-08-19T13:00:02;5.70;;;5.20;;
12784;SDS011;6456;42.680;23.260;2022-08-19T13:02:35;7.53;;;4.72;;
12784;SDS011;6456;42.680;23.260;2022-08-19T13:05:02;9.02;;;4.90;;
12784;SDS011;6456;42.680;23.260;2022-08-19T13:07:32;5.15;;;4.75;;
12784;SDS011;6456;42.680;23.260;2022-08-19T13:09:59;4.72;;;4.35;;
12784;SDS011;6456;42.680;23.260;2022-08-19T13:12:27;5.50;;;4.30;;
12784;SDS011;6456;42.680;23.260;2022-08-19T13:14:55;5.68;;;4.60;;
12784;SDS011;6456;42.680;23.260;2022-08-19T13:17:22;5.15;;;4.40;;
12784;SDS011;6456;42.680;23.260;2022-08-19T13:19:49;5.93;;;5.32;;
12784;SDS011;6456;42.680;23.260;2022-08-19T13:22:17;5.88;;;5.28;;
12784;SDS011;6456;42.680;23.260;2022-08-19T13:24:45;6.63;;;5.63;;
12784;SDS011;6456;42.680;23.260;2022-08-19T13:27:13;6.97;;;5.05;;
12784;SDS011;6456;42.680;23.260;2022-08-19T13:29:40;5.80;;;5.30;;
12784;SDS011;6456;42.680;23.260;2022-08-19T13:32:25;4.78;;;4.30;;
12784;SDS011;6456;42.680;23.260;2022-08-19T13:35:09;9.13;;;4.95;;
12784;SDS011;6456;42.680;23.260;2022-08-19T13:37:36;6.57;;;4.88;;
12784;SDS011;6456;42.680;23.260;2022-08-19T13:40:12;5.78;;;4.70;;
12784;SDS011;6456;42.680;23.260;2022-08-19T13:42:43;8.23;;;4.45;;
12784;SDS011;6456;42.680;23.260;2022-08-19T13:45:12;5.32;;;4.35;;
12784;SDS011;6456;42.680;23.260;2022-08-19T13:47:40;4.63;;;4.32;;
12784;SDS011;6456;42.680;23.260;2022-08-19T13:50:10;5.15;;;4.63;;
12784;SDS011;6456;42.680;23.260;2022-08-19T13:52:38;6.55;;;5.13;;
12784;SDS011;6456;42.680;23.260;2022-08-19T13:55:05;5.53;;;4.72;;
12784;SDS011;6456;42.680;23.260;2022-08-19T13:57:35;5.18;;;4.78;;
12784;SDS011;6456;42.680;23.260;2022-08-19T14:00:06;5.97;;;4.80;;
12784;SDS011;6456;42.680;23.260;2022-08-19T14:02:35;5.35;;;4.85;;
12784;SDS011;6456;42.680;23.260;2022-08-19T14:05:03;5.45;;;5.00;;
12784;SDS011;6456;42.680;23.260;2022-08-19T14:07:30;6.03;;;4.30;;
12784;SDS011;6456;42.680;23.260;2022-08-19T14:09:57;5.72;;;4.13;;
12784;SDS011;6456;42.680;23.260;2022-08-19T14:12:25;4.90;;;4.40;;
12784;SDS011;6456;42.680;23.260;2022-08-19T14:14:53;4.85;;;4.45;;
12784;SDS011;6456;42.680;23.260;2022-08-19T14:17:20;5.47;;;4.80;;
12784;SDS011;6456;42.680;23.260;2022-08-19T14:19:47;5.25;;;4.82;;
12784;SDS011;6456;42.680;23.260;2022-08-19T14:22:14;5.63;;;4.80;;
12784;SDS011;6456;42.680;23.260;2022-08-19T14:24:41;6.75;;;6.05;;
12784;SDS011;6456;42.680;23.260;2022-08-19T14:27:08;8.77;;;7.88;;
12784;SDS011;6456;42.680;23.260;2022-08-19T14:29:35;6.68;;;5.55;;
12784;SDS011;6456;42.680;23.260;2022-08-19T14:32:03;7.25;;;5.55;;
12784;SDS011;6456;42.680;23.260;2022-08-19T14:34:30;5.70;;;5.07;;
12784;SDS011;6456;42.680;23.260;2022-08-19T14:36:58;6.15;;;5.57;;
12784;SDS011;6456;42.680;23.260;2022-08-19T14:39:25;7.18;;;5.97;;
12784;SDS011;6456;42.680;23.260;2022-08-19T14:41:52;5.10;;;4.60;;
12784;SDS011;6456;42.680;23.260;2022-08-19T14:44:19;7.30;;;4.63;;
12784;SDS011;6456;42.680;23.260;2022-08-19T14:46:47;6.75;;;5.43;;
12784;SDS011;6456;42.680;23.260;2022-08-19T14:49:16;6.60;;;5.78;;
12784;SDS011;6456;42.680;23.260;2022-08-19T14:51:43;6.80;;;5.28;;
12784;SDS011;6456;42.680;23.260;2022-08-19T14:54:11;7.38;;;5.65;;
12784;SDS011;6456;42.680;23.260;2022-08-19T14:56:39;6.47;;;5.10;;
12784;SDS011;6456;42.680;23.260;2022-08-19T14:59:06;6.13;;;5.13;;
12784;SDS011;6456;42.680;23.260;2022-08-19T15:01:33;6.18;;;5.45;;
12784;SDS011;6456;42.680;23.260;2022-08-19T15:04:01;6.10;;;5.60;;
12784;SDS011;6456;42.680;23.260;2022-08-19T15:06:29;6.25;;;5.75;;
12784;SDS011;6456;42.680;23.260;2022-08-19T15:08:56;5.93;;;5.20;;